sensor_id;sensor_type;location;lat;lon;timestamp;P1;P2;P0
20157;PMS5003;10239;56.820;24.416;2024-03-29T00:02:12;22.60;19.40;10.40
20157;PMS5003;10239;56.820;24.416;2024-03-29T00:04:39;21.80;16.20;7.80
20157;PMS5003;10239;56.820;24.416;2024-03-29T00:07:05;16.60;14.40;8.20
20157;PMS5003;10239;56.820;24.416;2024-03-29T00:09:32;12.80;11.60;6.40
20157;PMS5003;10239;56.820;24.416;2024-03-29T00:11:58;11.00;10.00;3.80
20157;PMS5003;10239;56.820;24.416;2024-03-29T00:14:24;15.20;13.00;8.00
20157;PMS5003;10239;56.820;24.416;2024-03-29T00:16:52;21.20;13.80;7.80
20157;PMS5003;10239;56.820;24.416;2024-03-29T00:19:18;11.40;10.20;3.80
20157;PMS5003;10239;56.820;24.416;2024-03-29T00:21:45;16.60;9.80;6.00
20157;PMS5003;10239;56.820;24.416;2024-03-29T00:24:11;19.00;17.20;9.00
20157;PMS5003;10239;56.820;24.416;2024-03-29T00:26:38;17.20;14.20;8.60
20157;PMS5003;10239;56.820;24.416;2024-03-29T00:29:04;10.20;8.60;3.00
20157;PMS5003;10239;56.820;24.416;2024-03-29T00:31:31;13.20;9.60;4.60
20157;PMS5003;10239;56.820;24.416;2024-03-29T00:33:57;19.40;15.40;7.60
20157;PMS5003;10239;56.820;24.416;2024-03-29T00:36:24;9.80;9.80;6.60
20157;PMS5003;10239;56.820;24.416;2024-03-29T00:38:50;12.00;11.00;6.20
20157;PMS5003;10239;56.820;24.416;2024-03-29T00:41:16;12.20;11.00;6.00
20157;PMS5003;10239;56.820;24.416;2024-03-29T00:43:43;12.80;11.00;6.00
20157;PMS5003;10239;56.820;24.416;2024-03-29T00:46:10;12.60;11.80;6.60
20157;PMS5003;10239;56.820;24.416;2024-03-29T00:48:36;17.00;13.00;6.00
20157;PMS5003;10239;56.820;24.416;2024-03-29T00:51:02;14.60;11.80;6.20
20157;PMS5003;10239;56.820;24.416;2024-03-29T00:53:29;13.40;13.40;7.00
20157;PMS5003;10239;56.820;24.416;2024-03-29T00:55:56;13.20;11.00;6.00
20157;PMS5003;10239;56.820;24.416;2024-03-29T00:58:22;13.40;11.00;6.00
20157;PMS5003;10239;56.820;24.416;2024-03-29T01:00:48;12.60;12.60;7.00
20157;PMS5003;10239;56.820;24.416;2024-03-29T01:03:14;13.60;9.60;6.00
20157;PMS5003;10239;56.820;24.416;2024-03-29T01:05:41;12.20;11.80;6.00
20157;PMS5003;10239;56.820;24.416;2024-03-29T01:08:07;12.40;10.20;5.80
20157;PMS5003;10239;56.820;24.416;2024-03-29T01:10:33;14.60;11.00;4.60
20157;PMS5003;10239;56.820;24.416;2024-03-29T01:13:00;11.40;10.00;5.40
20157;PMS5003;10239;56.820;24.416;2024-03-29T01:15:26;16.00;14.00;7.00
20157;PMS5003;10239;56.820;24.416;2024-03-29T01:17:53;15.20;13.20;6.80
20157;PMS5003;10239;56.820;24.416;2024-03-29T01:20:19;18.20;11.00;5.80
20157;PMS5003;10239;56.820;24.416;2024-03-29T01:22:46;14.80;11.80;5.60
20157;PMS5003;10239;56.820;24.416;2024-03-29T01:25:12;15.80;12.60;6.80
20157;PMS5003;10239;56.820;24.416;2024-03-29T01:27:40;10.60;10.60;6.20
20157;PMS5003;10239;56.820;24.416;2024-03-29T01:30:06;10.00;7.60;5.00
20157;PMS5003;10239;56.820;24.416;2024-03-29T01:32:33;10.80;10.40;3.40
20157;PMS5003;10239;56.820;24.416;2024-03-29T01:34:59;9.60;6.20;1.80
20157;PMS5003;10239;56.820;24.416;2024-03-29T01:37:26;18.80;13.20;7.00
20157;PMS5003;10239;56.820;24.416;2024-03-29T01:39:52;15.20;13.00;7.00
20157;PMS5003;10239;56.820;24.416;2024-03-29T01:42:18;12.00;11.40;6.00
20157;PMS5003;10239;56.820;24.416;2024-03-29T01:44:45;18.00;11.40;7.00
20157;PMS5003;10239;56.820;24.416;2024-03-29T01:47:12;12.20;8.80;3.00
20157;PMS5003;10239;56.820;24.416;2024-03-29T01:49:39;14.40;13.60;7.00
20157;PMS5003;10239;56.820;24.416;2024-03-29T01:52:06;9.80;9.20;5.00
20157;PMS5003;10239;56.820;24.416;2024-03-29T01:54:33;13.60;13.60;5.20
20157;PMS5003;10239;56.820;24.416;2024-03-29T01:56:59;19.20;16.60;8.00
20157;PMS5003;10239;56.820;24.416;2024-03-29T01:59:26;15.40;11.40;5.00
20157;PMS5003;10239;56.820;24.416;2024-03-29T02:01:54;14.00;13.00;6.00
20157;PMS5003;10239;56.820;24.416;2024-03-29T02:04:21;16.40;13.60;6.40
20157;PMS5003;10239;56.820;24.416;2024-03-29T02:06:47;14.00;11.60;6.40
20157;PMS5003;10239;56.820;24.416;2024-03-29T02:09:14;18.80;12.20;7.20
20157;PMS5003;10239;56.820;24.416;2024-03-29T02:11:40;16.40;12.20;6.00
20157;PMS5003;10239;56.820;24.416;2024-03-29T02:14:07;21.60;14.40;7.40
20157;PMS5003;10239;56.820;24.416;2024-03-29T02:16:33;14.80;12.60;6.00
20157;PMS5003;10239;56.820;24.416;2024-03-29T02:19:00;11.60;9.60;3.40
20157;PMS5003;10239;56.820;24.416;2024-03-29T02:21:26;19.20;15.60;7.00
20157;PMS5003;10239;56.820;24.416;2024-03-29T02:24:08;11.40;11.40;6.00
20157;PMS5003;10239;56.820;24.416;2024-03-29T02:26:35;18.20;14.60;8.60
20157;PMS5003;10239;56.820;24.416;2024-03-29T02:29:03;13.60;11.20;5.80
20157;PMS5003;10239;56.820;24.416;2024-03-29T02:31:29;17.20;11.80;5.20
20157;PMS5003;10239;56.820;24.416;2024-03-29T02:33:56;20.40;16.80;8.20
20157;PMS5003;10239;56.820;24.416;2024-03-29T02:36:22;14.60;9.60;5.60
20157;PMS5003;10239;56.820;24.416;2024-03-29T02:38:49;14.20;10.80;6.00
20157;PMS5003;10239;56.820;24.416;2024-03-29T02:41:15;14.60;13.00;6.80
20157;PMS5003;10239;56.820;24.416;2024-03-29T02:43:42;15.20;13.00;7.00
20157;PMS5003;10239;56.820;24.416;2024-03-29T02:46:08;16.00;11.40;3.20
20157;PMS5003;10239;56.820;24.416;2024-03-29T02:48:35;20.00;16.60;8.40
20157;PMS5003;10239;56.820;24.416;2024-03-29T02:51:01;12.40;3.00;2.00
20157;PMS5003;10239;56.820;24.416;2024-03-29T02:53:27;18.60;15.20;7.80
20157;PMS5003;10239;56.820;24.416;2024-03-29T02:55:54;13.00;12.80;6.20
20157;PMS5003;10239;56.820;24.416;2024-03-29T02:58:20;12.20;12.20;6.00
20157;PMS5003;10239;56.820;24.416;2024-03-29T03:00:47;15.00;11.00;6.00
20157;PMS5003;10239;56.820;24.416;2024-03-29T03:03:14;16.00;13.40;6.60
20157;PMS5003;10239;56.820;24.416;2024-03-29T03:05:41;9.40;9.40;4.60
20157;PMS5003;10239;56.820;24.416;2024-03-29T03:08:07;14.00;13.00;6.00
20157;PMS5003;10239;56.820;24.416;2024-03-29T03:10:52;16.60;16.60;5.40
20157;PMS5003;10239;56.820;24.416;2024-03-29T03:13:22;21.40;15.40;7.20
20157;PMS5003;10239;56.820;24.416;2024-03-29T03:15:48;22.00;14.80;6.60
20157;PMS5003;10239;56.820;24.416;2024-03-29T03:18:14;13.60;13.00;5.60
20157;PMS5003;10239;56.820;24.416;2024-03-29T03:20:41;14.60;13.80;7.20
20157;PMS5003;10239;56.820;24.416;2024-03-29T03:23:07;16.80;14.40;7.00
20157;PMS5003;10239;56.820;24.416;2024-03-29T03:25:34;18.40;11.00;3.20
20157;PMS5003;10239;56.820;24.416;2024-03-29T03:28:00;19.20;13.60;6.20
20157;PMS5003;10239;56.820;24.416;2024-03-29T03:30:26;23.40;16.00;7.40
20157;PMS5003;10239;56.820;24.416;2024-03-29T03:32:53;17.40;13.60;9.00
20157;PMS5003;10239;56.820;24.416;2024-03-29T03:35:19;17.60;13.40;7.20
20157;PMS5003;10239;56.820;24.416;2024-03-29T03:37:46;19.60;15.20;7.20
20157;PMS5003;10239;56.820;24.416;2024-03-29T03:40:12;22.60;14.40;7.40
20157;PMS5003;10239;56.820;24.416;2024-03-29T03:42:39;21.20;15.60;9.00
20157;PMS5003;10239;56.820;24.416;2024-03-29T03:45:06;13.80;10.20;3.80
20157;PMS5003;10239;56.820;24.416;2024-03-29T03:47:32;15.40;13.80;7.60
20157;PMS5003;10239;56.820;24.416;2024-03-29T03:49:59;14.80;11.20;3.00
20157;PMS5003;10239;56.820;24.416;2024-03-29T03:52:25;10.60;9.20;5.40
20157;PMS5003;10239;56.820;24.416;2024-03-29T03:54:52;13.80;8.20;5.80
20157;PMS5003;10239;56.820;24.416;2024-03-29T03:57:18;15.00;12.00;6.20
20157;PMS5003;10239;56.820;24.416;2024-03-29T03:59:44;12.80;10.40;5.40
20157;PMS5003;10239;56.820;24.416;2024-03-29T04:02:11;14.80;8.80;3.40
20157;PMS5003;10239;56.820;24.416;2024-03-29T04:04:37;15.40;11.80;7.00
20157;PMS5003;10239;56.820;24.416;2024-03-29T04:07:03;14.60;8.80;6.00
20157;PMS5003;10239;56.820;24.416;2024-03-29T04:09:30;12.60;11.80;5.00
20157;PMS5003;10239;56.820;24.416;2024-03-29T04:11:56;10.40;10.00;4.00
20157;PMS5003;10239;56.820;24.416;2024-03-29T04:14:23;9.80;9.80;6.00
20157;PMS5003;10239;56.820;24.416;2024-03-29T04:16:49;8.00;6.60;3.80
20157;PMS5003;10239;56.820;24.416;2024-03-29T04:19:15;18.80;12.00;5.80
20157;PMS5003;10239;56.820;24.416;2024-03-29T04:21:41;11.40;8.00;6.40
20157;PMS5003;10239;56.820;24.416;2024-03-29T04:24:08;8.60;8.00;3.00
20157;PMS5003;10239;56.820;24.416;2024-03-29T04:26:35;8.20;6.80;2.00
20157;PMS5003;10239;56.820;24.416;2024-03-29T04:29:03;9.20;9.20;2.80
20157;PMS5003;10239;56.820;24.416;2024-03-29T04:31:29;6.00;5.80;2.40
20157;PMS5003;10239;56.820;24.416;2024-03-29T04:33:55;9.20;6.40;1.80
20157;PMS5003;10239;56.820;24.416;2024-03-29T04:36:22;6.80;6.20;2.60
20157;PMS5003;10239;56.820;24.416;2024-03-29T04:38:48;13.60;7.40;3.00
20157;PMS5003;10239;56.820;24.416;2024-03-29T04:41:14;11.00;7.20;2.20
20157;PMS5003;10239;56.820;24.416;2024-03-29T04:43:41;11.60;9.80;3.00
20157;PMS5003;10239;56.820;24.416;2024-03-29T04:46:09;9.20;6.60;2.80
20157;PMS5003;10239;56.820;24.416;2024-03-29T04:48:40;11.40;6.60;3.00
20157;PMS5003;10239;56.820;24.416;2024-03-29T04:51:08;8.20;6.20;2.40
20157;PMS5003;10239;56.820;24.416;2024-03-29T04:53:35;11.20;6.60;3.00
20157;PMS5003;10239;56.820;24.416;2024-03-29T04:56:03;11.00;5.80;1.20
20157;PMS5003;10239;56.820;24.416;2024-03-29T04:58:29;11.60;7.00;2.00
20157;PMS5003;10239;56.820;24.416;2024-03-29T05:00:56;5.60;5.60;2.20
20157;PMS5003;10239;56.820;24.416;2024-03-29T05:03:23;5.60;5.60;2.00
20157;PMS5003;10239;56.820;24.416;2024-03-29T05:05:50;10.80;5.00;2.00
20157;PMS5003;10239;56.820;24.416;2024-03-29T05:08:17;7.40;5.00;2.00
20157;PMS5003;10239;56.820;24.416;2024-03-29T05:10:48;11.40;5.60;1.00
20157;PMS5003;10239;56.820;24.416;2024-03-29T05:13:16;6.40;5.20;2.60
20157;PMS5003;10239;56.820;24.416;2024-03-29T05:15:43;7.60;5.00;2.60
20157;PMS5003;10239;56.820;24.416;2024-03-29T05:18:09;6.60;5.40;2.40
20157;PMS5003;10239;56.820;24.416;2024-03-29T05:20:36;7.00;4.80;1.80
20157;PMS5003;10239;56.820;24.416;2024-03-29T05:23:02;7.40;6.00;2.00
20157;PMS5003;10239;56.820;24.416;2024-03-29T05:25:28;6.80;4.60;0.20
20157;PMS5003;10239;56.820;24.416;2024-03-29T05:27:55;6.20;4.40;1.00
20157;PMS5003;10239;56.820;24.416;2024-03-29T05:30:21;11.40;6.20;2.00
20157;PMS5003;10239;56.820;24.416;2024-03-29T05:32:49;5.40;3.60;2.00
20157;PMS5003;10239;56.820;24.416;2024-03-29T05:35:15;6.00;4.40;2.00
20157;PMS5003;10239;56.820;24.416;2024-03-29T05:37:42;7.40;4.20;1.20
20157;PMS5003;10239;56.820;24.416;2024-03-29T05:40:15;4.20;4.20;1.60
20157;PMS5003;10239;56.820;24.416;2024-03-29T05:42:41;6.80;3.00;1.40
20157;PMS5003;10239;56.820;24.416;2024-03-29T05:45:23;5.00;5.00;1.60
20157;PMS5003;10239;56.820;24.416;2024-03-29T05:47:54;5.80;5.80;2.00
20157;PMS5003;10239;56.820;24.416;2024-03-29T05:50:21;7.60;6.00;1.80
20157;PMS5003;10239;56.820;24.416;2024-03-29T05:52:49;5.20;2.80;1.20
20157;PMS5003;10239;56.820;24.416;2024-03-29T05:55:17;5.20;5.20;1.20
20157;PMS5003;10239;56.820;24.416;2024-03-29T05:57:43;4.60;2.60;0.40
20157;PMS5003;10239;56.820;24.416;2024-03-29T06:00:14;3.20;2.20;1.00
20157;PMS5003;10239;56.820;24.416;2024-03-29T06:02:41;3.80;3.00;1.20
20157;PMS5003;10239;56.820;24.416;2024-03-29T06:05:08;5.60;5.60;1.20
20157;PMS5003;10239;56.820;24.416;2024-03-29T06:07:35;5.20;5.20;2.00
20157;PMS5003;10239;56.820;24.416;2024-03-29T06:10:01;6.40;4.20;1.60
20157;PMS5003;10239;56.820;24.416;2024-03-29T06:12:34;6.80;5.80;2.00
20157;PMS5003;10239;56.820;24.416;2024-03-29T06:15:02;4.80;2.40;1.00
20157;PMS5003;10239;56.820;24.416;2024-03-29T06:17:51;9.40;6.60;2.00
20157;PMS5003;10239;56.820;24.416;2024-03-29T06:20:18;6.00;3.40;2.00
20157;PMS5003;10239;56.820;24.416;2024-03-29T06:22:44;6.80;4.00;1.40
20157;PMS5003;10239;56.820;24.416;2024-03-29T06:25:11;3.00;3.00;1.60
20157;PMS5003;10239;56.820;24.416;2024-03-29T06:27:37;6.00;3.60;2.00
20157;PMS5003;10239;56.820;24.416;2024-03-29T06:30:04;3.20;3.20;1.60
20157;PMS5003;10239;56.820;24.416;2024-03-29T06:32:31;5.60;5.60;2.00
20157;PMS5003;10239;56.820;24.416;2024-03-29T06:34:58;7.00;6.80;3.00
20157;PMS5003;10239;56.820;24.416;2024-03-29T06:37:26;6.60;6.20;2.00
20157;PMS5003;10239;56.820;24.416;2024-03-29T06:39:53;3.80;3.80;2.00
20157;PMS5003;10239;56.820;24.416;2024-03-29T06:42:19;8.80;7.00;1.80
20157;PMS5003;10239;56.820;24.416;2024-03-29T06:44:46;7.20;6.00;2.00
20157;PMS5003;10239;56.820;24.416;2024-03-29T06:47:12;7.40;4.60;2.60
20157;PMS5003;10239;56.820;24.416;2024-03-29T06:49:39;3.60;3.60;1.00
20157;PMS5003;10239;56.820;24.416;2024-03-29T06:52:05;7.60;6.20;2.20
20157;PMS5003;10239;56.820;24.416;2024-03-29T06:54:32;3.20;3.20;1.40
20157;PMS5003;10239;56.820;24.416;2024-03-29T06:56:59;4.00;3.20;1.40
20157;PMS5003;10239;56.820;24.416;2024-03-29T06:59:26;7.00;3.20;1.00
20157;PMS5003;10239;56.820;24.416;2024-03-29T07:01:53;6.60;3.80;1.20
20157;PMS5003;10239;56.820;24.416;2024-03-29T07:04:21;2.80;2.80;0.00
20157;PMS5003;10239;56.820;24.416;2024-03-29T07:06:49;6.40;5.00;2.00
20157;PMS5003;10239;56.820;24.416;2024-03-29T07:09:18;5.40;5.40;2.80
20157;PMS5003;10239;56.820;24.416;2024-03-29T07:11:46;6.80;6.80;2.80
20157;PMS5003;10239;56.820;24.416;2024-03-29T07:14:14;8.80;5.00;2.20
20157;PMS5003;10239;56.820;24.416;2024-03-29T07:16:41;6.20;3.40;1.40
20157;PMS5003;10239;56.820;24.416;2024-03-29T07:19:08;6.60;5.40;2.00
20157;PMS5003;10239;56.820;24.416;2024-03-29T07:21:35;7.60;6.40;2.40
20157;PMS5003;10239;56.820;24.416;2024-03-29T07:24:01;8.40;7.40;3.60
20157;PMS5003;10239;56.820;24.416;2024-03-29T07:26:27;8.80;4.60;2.00
20157;PMS5003;10239;56.820;24.416;2024-03-29T07:28:54;9.40;5.20;2.00
20157;PMS5003;10239;56.820;24.416;2024-03-29T07:31:20;11.00;9.20;3.00
20157;PMS5003;10239;56.820;24.416;2024-03-29T07:33:47;10.00;7.80;3.00
20157;PMS5003;10239;56.820;24.416;2024-03-29T07:36:13;14.80;9.20;3.00
20157;PMS5003;10239;56.820;24.416;2024-03-29T07:38:42;13.60;8.00;2.60
20157;PMS5003;10239;56.820;24.416;2024-03-29T07:41:12;7.40;7.40;3.00
20157;PMS5003;10239;56.820;24.416;2024-03-29T07:44:00;10.40;5.60;1.00
20157;PMS5003;10239;56.820;24.416;2024-03-29T07:46:32;9.80;7.20;2.00
20157;PMS5003;10239;56.820;24.416;2024-03-29T07:49:00;9.20;8.60;3.80
20157;PMS5003;10239;56.820;24.416;2024-03-29T07:51:27;11.40;8.60;3.00
20157;PMS5003;10239;56.820;24.416;2024-03-29T07:53:53;12.40;9.80;4.00
20157;PMS5003;10239;56.820;24.416;2024-03-29T07:56:21;11.80;11.80;4.00
20157;PMS5003;10239;56.820;24.416;2024-03-29T07:58:52;13.80;10.60;4.00
20157;PMS5003;10239;56.820;24.416;2024-03-29T08:01:19;10.40;8.20;4.00
20157;PMS5003;10239;56.820;24.416;2024-03-29T08:03:47;16.40;12.40;4.00
20157;PMS5003;10239;56.820;24.416;2024-03-29T08:06:15;11.00;7.40;3.00
20157;PMS5003;10239;56.820;24.416;2024-03-29T08:08:45;9.80;8.20;4.00
20157;PMS5003;10239;56.820;24.416;2024-03-29T08:11:11;10.40;9.60;3.60
20157;PMS5003;10239;56.820;24.416;2024-03-29T08:13:38;8.40;7.80;3.60
20157;PMS5003;10239;56.820;24.416;2024-03-29T08:16:06;17.40;13.80;6.00
20157;PMS5003;10239;56.820;24.416;2024-03-29T08:18:33;13.20;10.60;4.80
20157;PMS5003;10239;56.820;24.416;2024-03-29T08:20:59;13.20;10.20;4.40
20157;PMS5003;10239;56.820;24.416;2024-03-29T08:23:26;12.40;6.80;1.20
20157;PMS5003;10239;56.820;24.416;2024-03-29T08:25:52;7.00;6.20;2.00
20157;PMS5003;10239;56.820;24.416;2024-03-29T08:28:21;11.20;11.20;6.00
20157;PMS5003;10239;56.820;24.416;2024-03-29T08:31:01;17.80;13.20;5.40
20157;PMS5003;10239;56.820;24.416;2024-03-29T08:33:31;12.40;10.80;5.80
20157;PMS5003;10239;56.820;24.416;2024-03-29T08:35:58;13.80;12.00;5.80
20157;PMS5003;10239;56.820;24.416;2024-03-29T08:38:24;8.60;3.80;2.00
20157;PMS5003;10239;56.820;24.416;2024-03-29T08:40:51;8.60;6.80;1.00
20157;PMS5003;10239;56.820;24.416;2024-03-29T08:43:17;20.60;13.00;6.40
20157;PMS5003;10239;56.820;24.416;2024-03-29T08:45:44;14.80;13.60;3.00
20157;PMS5003;10239;56.820;24.416;2024-03-29T08:48:11;9.80;8.80;6.00
20157;PMS5003;10239;56.820;24.416;2024-03-29T08:50:37;19.20;12.80;3.60
20157;PMS5003;10239;56.820;24.416;2024-03-29T08:53:04;12.00;11.00;5.20
20157;PMS5003;10239;56.820;24.416;2024-03-29T08:55:32;11.40;10.00;5.20
20157;PMS5003;10239;56.820;24.416;2024-03-29T08:58:00;14.40;10.40;6.00
20157;PMS5003;10239;56.820;24.416;2024-03-29T09:00:28;14.00;12.00;6.20
20157;PMS5003;10239;56.820;24.416;2024-03-29T09:02:56;15.00;9.80;4.20
20157;PMS5003;10239;56.820;24.416;2024-03-29T09:05:23;18.00;12.60;5.60
20157;PMS5003;10239;56.820;24.416;2024-03-29T09:07:49;11.40;10.00;4.20
20157;PMS5003;10239;56.820;24.416;2024-03-29T09:10:16;14.80;12.60;5.20
20157;PMS5003;10239;56.820;24.416;2024-03-29T09:12:43;15.60;8.40;2.00
20157;PMS5003;10239;56.820;24.416;2024-03-29T09:15:10;11.40;9.40;5.20
20157;PMS5003;10239;56.820;24.416;2024-03-29T09:17:39;10.80;9.20;3.80
20157;PMS5003;10239;56.820;24.416;2024-03-29T09:20:06;10.80;9.80;3.00
20157;PMS5003;10239;56.820;24.416;2024-03-29T09:22:33;12.40;11.00;5.20
20157;PMS5003;10239;56.820;24.416;2024-03-29T09:25:00;17.40;15.60;5.80
20157;PMS5003;10239;56.820;24.416;2024-03-29T09:27:27;13.80;10.20;4.20
20157;PMS5003;10239;56.820;24.416;2024-03-29T09:29:56;15.00;11.40;3.80
20157;PMS5003;10239;56.820;24.416;2024-03-29T09:32:23;13.80;12.00;4.20
20157;PMS5003;10239;56.820;24.416;2024-03-29T09:34:50;14.80;10.80;4.20
20157;PMS5003;10239;56.820;24.416;2024-03-29T09:37:16;11.20;10.20;4.20
20157;PMS5003;10239;56.820;24.416;2024-03-29T09:39:46;13.60;12.60;6.80
20157;PMS5003;10239;56.820;24.416;2024-03-29T09:42:15;14.00;11.60;5.20
20157;PMS5003;10239;56.820;24.416;2024-03-29T09:44:43;14.80;12.40;3.60
20157;PMS5003;10239;56.820;24.416;2024-03-29T09:47:13;18.20;14.00;8.00
20157;PMS5003;10239;56.820;24.416;2024-03-29T09:49:42;20.40;17.40;6.00
20157;PMS5003;10239;56.820;24.416;2024-03-29T09:52:10;18.40;12.60;4.00
20157;PMS5003;10239;56.820;24.416;2024-03-29T09:54:38;18.60;15.40;7.00
20157;PMS5003;10239;56.820;24.416;2024-03-29T09:57:05;14.40;14.40;5.60
20157;PMS5003;10239;56.820;24.416;2024-03-29T09:59:31;16.00;15.20;7.20
20157;PMS5003;10239;56.820;24.416;2024-03-29T10:02:00;17.60;15.20;6.60
20157;PMS5003;10239;56.820;24.416;2024-03-29T10:04:34;19.20;12.60;4.20
20157;PMS5003;10239;56.820;24.416;2024-03-29T10:07:02;13.80;13.00;4.80
20157;PMS5003;10239;56.820;24.416;2024-03-29T10:09:29;13.40;11.40;3.00
20157;PMS5003;10239;56.820;24.416;2024-03-29T10:11:58;16.60;10.60;6.00
20157;PMS5003;10239;56.820;24.416;2024-03-29T10:14:25;17.80;12.80;4.00
20157;PMS5003;10239;56.820;24.416;2024-03-29T10:16:52;21.20;14.20;6.60
20157;PMS5003;10239;56.820;24.416;2024-03-29T10:19:19;12.80;10.20;4.80
20157;PMS5003;10239;56.820;24.416;2024-03-29T10:21:47;12.20;9.00;4.80
20157;PMS5003;10239;56.820;24.416;2024-03-29T10:24:14;16.80;9.20;2.40
20157;PMS5003;10239;56.820;24.416;2024-03-29T10:26:42;11.20;10.20;3.20
20157;PMS5003;10239;56.820;24.416;2024-03-29T10:29:09;7.40;4.60;2.00
20157;PMS5003;10239;56.820;24.416;2024-03-29T10:31:36;4.00;4.00;2.00
20157;PMS5003;10239;56.820;24.416;2024-03-29T10:34:03;5.20;4.20;1.80
20157;PMS5003;10239;56.820;24.416;2024-03-29T10:36:34;3.40;2.40;1.00
20157;PMS5003;10239;56.820;24.416;2024-03-29T10:39:02;4.80;4.80;2.00
20157;PMS5003;10239;56.820;24.416;2024-03-29T10:41:40;6.40;4.40;2.20
20157;PMS5003;10239;56.820;24.416;2024-03-29T10:44:10;5.40;5.40;1.80
20157;PMS5003;10239;56.820;24.416;2024-03-29T10:46:38;3.60;3.60;1.00
20157;PMS5003;10239;56.820;24.416;2024-03-29T10:49:06;5.60;5.60;1.00
20157;PMS5003;10239;56.820;24.416;2024-03-29T10:51:38;4.20;4.20;2.40
20157;PMS5003;10239;56.820;24.416;2024-03-29T10:54:08;7.60;4.80;2.60
20157;PMS5003;10239;56.820;24.416;2024-03-29T10:56:36;6.40;6.40;2.20
20157;PMS5003;10239;56.820;24.416;2024-03-29T10:59:22;4.00;4.00;2.00
20157;PMS5003;10239;56.820;24.416;2024-03-29T11:02:17;6.60;4.60;2.00
20157;PMS5003;10239;56.820;24.416;2024-03-29T11:05:06;9.40;7.60;3.60
20157;PMS5003;10239;56.820;24.416;2024-03-29T11:07:39;6.00;6.00;3.00
20157;PMS5003;10239;56.820;24.416;2024-03-29T11:10:11;8.40;5.60;2.60
20157;PMS5003;10239;56.820;24.416;2024-03-29T11:13:08;3.20;3.00;1.60
20157;PMS5003;10239;56.820;24.416;2024-03-29T11:15:49;9.40;5.40;2.00
20157;PMS5003;10239;56.820;24.416;2024-03-29T11:18:17;9.20;6.80;2.40
20157;PMS5003;10239;56.820;24.416;2024-03-29T11:20:48;6.00;6.00;2.60
20157;PMS5003;10239;56.820;24.416;2024-03-29T11:23:18;7.20;7.20;3.00
20157;PMS5003;10239;56.820;24.416;2024-03-29T11:25:51;6.00;6.00;3.20
20157;PMS5003;10239;56.820;24.416;2024-03-29T11:28:32;6.00;4.20;1.60
20157;PMS5003;10239;56.820;24.416;2024-03-29T11:31:01;7.60;7.40;3.00
20157;PMS5003;10239;56.820;24.416;2024-03-29T11:33:32;5.40;5.40;2.40
20157;PMS5003;10239;56.820;24.416;2024-03-29T11:36:18;8.60;7.60;2.00
20157;PMS5003;10239;56.820;24.416;2024-03-29T11:38:53;5.60;5.60;2.00
20157;PMS5003;10239;56.820;24.416;2024-03-29T11:41:24;6.00;6.00;2.00
20157;PMS5003;10239;56.820;24.416;2024-03-29T11:43:55;3.00;3.00;2.00
20157;PMS5003;10239;56.820;24.416;2024-03-29T11:46:23;3.40;3.00;2.00
20157;PMS5003;10239;56.820;24.416;2024-03-29T11:48:50;4.20;3.00;1.00
20157;PMS5003;10239;56.820;24.416;2024-03-29T11:51:20;6.80;3.00;1.80
20157;PMS5003;10239;56.820;24.416;2024-03-29T11:53:50;6.00;2.00;1.00
20157;PMS5003;10239;56.820;24.416;2024-03-29T11:56:18;5.20;3.00;2.00
20157;PMS5003;10239;56.820;24.416;2024-03-29T11:58:45;2.40;2.00;1.40
20157;PMS5003;10239;56.820;24.416;2024-03-29T12:01:14;4.20;2.00;1.00
20157;PMS5003;10239;56.820;24.416;2024-03-29T12:03:42;6.80;4.20;2.00
20157;PMS5003;10239;56.820;24.416;2024-03-29T12:06:09;2.80;2.80;1.00
20157;PMS5003;10239;56.820;24.416;2024-03-29T12:08:39;3.40;2.00;0.80
20157;PMS5003;10239;56.820;24.416;2024-03-29T12:11:08;3.60;3.20;1.40
20157;PMS5003;10239;56.820;24.416;2024-03-29T12:13:35;1.00;1.00;0.00
20157;PMS5003;10239;56.820;24.416;2024-03-29T12:16:02;4.00;4.00;2.20
20157;PMS5003;10239;56.820;24.416;2024-03-29T12:18:31;3.20;3.20;2.00
20157;PMS5003;10239;56.820;24.416;2024-03-29T12:20:58;8.20;4.40;2.00
20157;PMS5003;10239;56.820;24.416;2024-03-29T12:23:25;3.60;2.40;1.20
20157;PMS5003;10239;56.820;24.416;2024-03-29T12:25:53;3.60;3.60;1.60
20157;PMS5003;10239;56.820;24.416;2024-03-29T12:28:24;5.80;3.40;2.00
20157;PMS5003;10239;56.820;24.416;2024-03-29T12:30:52;3.80;3.80;1.00
20157;PMS5003;10239;56.820;24.416;2024-03-29T12:33:21;6.60;5.60;1.40
20157;PMS5003;10239;56.820;24.416;2024-03-29T12:35:49;4.20;2.00;1.00
20157;PMS5003;10239;56.820;24.416;2024-03-29T12:38:18;3.80;2.20;1.00
20157;PMS5003;10239;56.820;24.416;2024-03-29T12:40:46;3.40;3.40;1.00
20157;PMS5003;10239;56.820;24.416;2024-03-29T12:43:14;2.00;2.00;1.00
20157;PMS5003;10239;56.820;24.416;2024-03-29T12:45:46;3.60;3.60;1.00
20157;PMS5003;10239;56.820;24.416;2024-03-29T12:48:19;3.80;0.60;0.00
20157;PMS5003;10239;56.820;24.416;2024-03-29T12:50:50;2.40;2.40;1.00
20157;PMS5003;10239;56.820;24.416;2024-03-29T12:53:18;2.00;2.00;0.80
20157;PMS5003;10239;56.820;24.416;2024-03-29T12:55:45;6.60;3.00;1.80
20157;PMS5003;10239;56.820;24.416;2024-03-29T12:58:13;3.00;3.00;2.00
20157;PMS5003;10239;56.820;24.416;2024-03-29T13:00:41;2.20;2.20;1.00
20157;PMS5003;10239;56.820;24.416;2024-03-29T13:03:09;2.80;2.80;1.20
20157;PMS5003;10239;56.820;24.416;2024-03-29T13:05:36;2.40;2.40;1.00
20157;PMS5003;10239;56.820;24.416;2024-03-29T13:08:12;3.60;2.00;1.00
20157;PMS5003;10239;56.820;24.416;2024-03-29T13:10:43;1.80;1.00;0.00
20157;PMS5003;10239;56.820;24.416;2024-03-29T13:13:10;2.20;2.20;1.00
20157;PMS5003;10239;56.820;24.416;2024-03-29T13:15:38;2.00;2.00;1.00
20157;PMS5003;10239;56.820;24.416;2024-03-29T13:18:05;1.00;1.00;0.00
20157;PMS5003;10239;56.820;24.416;2024-03-29T13:20:35;3.60;3.40;2.00
20157;PMS5003;10239;56.820;24.416;2024-03-29T13:23:07;1.60;1.60;1.00
20157;PMS5003;10239;56.820;24.416;2024-03-29T13:25:34;7.80;4.00;1.00
20157;PMS5003;10239;56.820;24.416;2024-03-29T13:28:00;2.00;2.00;1.00
20157;PMS5003;10239;56.820;24.416;2024-03-29T13:30:27;4.00;2.00;1.20
20157;PMS5003;10239;56.820;24.416;2024-03-29T13:32:56;3.60;3.60;1.00
20157;PMS5003;10239;56.820;24.416;2024-03-29T13:35:22;4.00;4.00;2.00
20157;PMS5003;10239;56.820;24.416;2024-03-29T13:37:49;2.80;2.80;1.00
20157;PMS5003;10239;56.820;24.416;2024-03-29T13:40:18;4.40;2.60;1.00
20157;PMS5003;10239;56.820;24.416;2024-03-29T13:42:45;4.00;4.00;1.60
20157;PMS5003;10239;56.820;24.416;2024-03-29T13:45:12;2.00;2.00;1.40
20157;PMS5003;10239;56.820;24.416;2024-03-29T13:47:39;2.40;2.40;1.00
20157;PMS5003;10239;56.820;24.416;2024-03-29T13:50:10;3.00;3.00;1.60
20157;PMS5003;10239;56.820;24.416;2024-03-29T13:52:37;6.00;6.00;2.00
20157;PMS5003;10239;56.820;24.416;2024-03-29T13:55:11;2.00;2.00;1.20
20157;PMS5003;10239;56.820;24.416;2024-03-29T13:57:38;2.60;2.60;2.00
20157;PMS5003;10239;56.820;24.416;2024-03-29T14:00:06;5.20;5.20;2.00
20157;PMS5003;10239;56.820;24.416;2024-03-29T14:02:33;3.20;3.20;2.00
20157;PMS5003;10239;56.820;24.416;2024-03-29T14:05:00;4.00;4.00;1.00